sensor_id;sensor_type;location;lat;lon;timestamp;P1;durP1;ratioP1;P2;durP2;ratioP2
72575;SDS011;60613;48.658;2.328;2023-01-28T07:02:37;4.68;;;1.90;;
72575;SDS011;60613;48.658;2.328;2023-01-28T07:05:03;3.92;;;1.90;;
72575;SDS011;60613;48.658;2.328;2023-01-28T07:07:30;5.00;;;2.15;;
72575;SDS011;60613;48.658;2.328;2023-01-28T07:09:56;4.43;;;2.07;;
72575;SDS011;60613;48.658;2.328;2023-01-28T07:12:22;4.57;;;2.10;;
72575;SDS011;60613;48.658;2.328;2023-01-28T07:14:48;4.60;;;2.13;;
72575;SDS011;60613;48.658;2.328;2023-01-28T07:17:13;5.03;;;2.33;;
72575;SDS011;60613;48.658;2.328;2023-01-28T07:19:39;5.40;;;2.00;;
72575;SDS011;60613;48.658;2.328;2023-01-28T07:22:05;4.20;;;2.00;;
72575;SDS011;60613;48.658;2.328;2023-01-28T07:24:30;4.63;;;2.03;;
72575;SDS011;60613;48.658;2.328;2023-01-28T07:26:57;6.13;;;2.40;;
72575;SDS011;60613;48.658;2.328;2023-01-28T07:29:22;4.83;;;2.30;;
72575;SDS011;60613;48.658;2.328;2023-01-28T07:31:48;5.10;;;2.20;;
72575;SDS011;60613;48.658;2.328;2023-01-28T07:34:13;5.83;;;2.30;;
72575;SDS011;60613;48.658;2.328;2023-01-28T07:36:39;5.57;;;2.40;;
72575;SDS011;60613;48.658;2.328;2023-01-28T07:39:05;4.07;;;1.83;;
72575;SDS011;60613;48.658;2.328;2023-01-28T07:41:33;5.00;;;2.20;;
72575;SDS011;60613;48.658;2.328;2023-01-28T07:43:59;4.77;;;2.27;;
72575;SDS011;60613;48.658;2.328;2023-01-28T07:46:24;5.00;;;2.25;;
72575;SDS011;60613;48.658;2.328;2023-01-28T07:48:50;5.03;;;2.33;;
72575;SDS011;60613;48.658;2.328;2023-01-28T07:51:15;5.00;;;2.40;;
72575;SDS011;60613;48.658;2.328;2023-01-28T07:53:41;5.30;;;2.20;;
72575;SDS011;60613;48.658;2.328;2023-01-28T07:56:07;5.37;;;2.20;;
72575;SDS011;60613;48.658;2.328;2023-01-28T07:58:32;10.18;;;5.90;;
72575;SDS011;60613;48.658;2.328;2023-01-28T08:00:59;14.38;;;8.98;;
72575;SDS011;60613;48.658;2.328;2023-01-28T08:03:26;17.50;;;11.23;;
72575;SDS011;60613;48.658;2.328;2023-01-28T08:05:53;20.73;;;12.90;;
72575;SDS011;60613;48.658;2.328;2023-01-28T08:08:23;27.27;;;14.73;;
72575;SDS011;60613;48.658;2.328;2023-01-28T08:10:51;29.15;;;15.93;;
72575;SDS011;60613;48.658;2.328;2023-01-28T08:13:17;27.58;;;14.35;;
72575;SDS011;60613;48.658;2.328;2023-01-28T08:15:44;32.67;;;17.13;;
72575;SDS011;60613;48.658;2.328;2023-01-28T08:18:10;27.30;;;14.20;;
72575;SDS011;60613;48.658;2.328;2023-01-28T08:20:37;28.48;;;14.65;;
72575;SDS011;60613;48.658;2.328;2023-01-28T08:23:08;18.45;;;10.30;;
72575;SDS011;60613;48.658;2.328;2023-01-28T08:25:56;14.27;;;7.13;;
72575;SDS011;60613;48.658;2.328;2023-01-28T08:28:23;13.00;;;7.60;;
72575;SDS011;60613;48.658;2.328;2023-01-28T08:30:48;14.30;;;6.83;;
72575;SDS011;60613;48.658;2.328;2023-01-28T08:33:15;12.02;;;6.30;;
72575;SDS011;60613;48.658;2.328;2023-01-28T08:35:41;12.52;;;6.30;;
72575;SDS011;60613;48.658;2.328;2023-01-28T08:38:09;10.70;;;5.33;;
72575;SDS011;60613;48.658;2.328;2023-01-28T08:40:36;10.77;;;5.45;;
72575;SDS011;60613;48.658;2.328;2023-01-28T08:43:01;12.93;;;5.20;;
72575;SDS011;60613;48.658;2.328;2023-01-28T08:45:27;9.77;;;4.55;;
72575;SDS011;60613;48.658;2.328;2023-01-28T08:47:57;9.85;;;4.70;;
72575;SDS011;60613;48.658;2.328;2023-01-28T08:50:28;10.93;;;4.87;;
72575;SDS011;60613;48.658;2.328;2023-01-28T08:52:57;10.52;;;4.45;;
72575;SDS011;60613;48.658;2.328;2023-01-28T08:55:25;10.15;;;4.53;;
72575;SDS011;60613;48.658;2.328;2023-01-28T08:57:51;8.13;;;4.20;;
72575;SDS011;60613;48.658;2.328;2023-01-28T09:00:18;9.88;;;4.40;;
72575;SDS011;60613;48.658;2.328;2023-01-28T09:02:44;8.80;;;4.03;;
72575;SDS011;60613;48.658;2.328;2023-01-28T09:05:10;9.52;;;4.22;;
72575;SDS011;60613;48.658;2.328;2023-01-28T09:07:36;9.70;;;4.27;;
72575;SDS011;60613;48.658;2.328;2023-01-28T09:10:03;9.52;;;4.50;;
72575;SDS011;60613;48.658;2.328;2023-01-28T09:12:29;8.90;;;4.18;;
72575;SDS011;60613;48.658;2.328;2023-01-28T09:14:56;9.15;;;4.22;;
72575;SDS011;60613;48.658;2.328;2023-01-28T09:17:21;8.13;;;3.90;;
72575;SDS011;60613;48.658;2.328;2023-01-28T09:19:47;9.15;;;3.97;;
72575;SDS011;60613;48.658;2.328;2023-01-28T09:22:13;8.70;;;4.10;;
72575;SDS011;60613;48.658;2.328;2023-01-28T09:24:39;8.70;;;4.00;;
72575;SDS011;60613;48.658;2.328;2023-01-28T09:27:05;9.30;;;4.00;;
72575;SDS011;60613;48.658;2.328;2023-01-28T09:29:32;7.80;;;4.00;;
72575;SDS011;60613;48.658;2.328;2023-01-28T09:31:59;8.05;;;4.03;;
72575;SDS011;60613;48.658;2.328;2023-01-28T09:34:24;7.45;;;3.85;;
72575;SDS011;60613;48.658;2.328;2023-01-28T09:36:50;7.77;;;3.70;;
72575;SDS011;60613;48.658;2.328;2023-01-28T09:39:16;7.57;;;3.80;;
72575;SDS011;60613;48.658;2.328;2023-01-28T09:41:49;7.90;;;3.83;;
72575;SDS011;60613;48.658;2.328;2023-01-28T09:44:32;7.75;;;3.80;;
72575;SDS011;60613;48.658;2.328;2023-01-28T09:47:21;9.10;;;3.57;;
72575;SDS011;60613;48.658;2.328;2023-01-28T09:49:54;7.10;;;3.38;;
72575;SDS011;60613;48.658;2.328;2023-01-28T09:52:24;7.40;;;3.50;;
72575;SDS011;60613;48.658;2.328;2023-01-28T09:55:02;8.15;;;3.65;;
72575;SDS011;60613;48.658;2.328;2023-01-28T09:57:30;7.97;;;3.35;;
72575;SDS011;60613;48.658;2.328;2023-01-28T10:00:11;7.40;;;3.10;;
72575;SDS011;60613;48.658;2.328;2023-01-28T10:02:59;6.80;;;3.30;;
72575;SDS011;60613;48.658;2.328;2023-01-28T10:16:44;6.65;;;2.85;;
72575;SDS011;60613;48.658;2.328;2023-01-28T10:19:24;8.65;;;3.42;;
72575;SDS011;60613;48.658;2.328;2023-01-28T10:22:03;6.85;;;3.10;;
72575;SDS011;60613;48.658;2.328;2023-01-28T10:24:44;7.90;;;3.30;;
72575;SDS011;60613;48.658;2.328;2023-01-28T10:27:20;7.00;;;3.20;;
72575;SDS011;60613;48.658;2.328;2023-01-28T10:29:49;6.70;;;3.20;;
72575;SDS011;60613;48.658;2.328;2023-01-28T10:32:17;6.68;;;3.35;;
72575;SDS011;60613;48.658;2.328;2023-01-28T10:34:41;6.82;;;3.05;;
72575;SDS011;60613;48.658;2.328;2023-01-28T10:37:08;7.67;;;3.27;;
72575;SDS011;60613;48.658;2.328;2023-01-28T10:39:38;6.00;;;2.80;;
72575;SDS011;60613;48.658;2.328;2023-01-28T10:42:49;7.03;;;3.17;;
72575;SDS011;60613;48.658;2.328;2023-01-28T10:45:01;6.33;;;2.80;;
72575;SDS011;60613;48.658;2.328;2023-01-28T10:47:32;7.07;;;2.90;;
72575;SDS011;60613;48.658;2.328;2023-01-28T10:50:05;6.68;;;2.95;;
72575;SDS011;60613;48.658;2.328;2023-01-28T10:52:54;6.22;;;3.00;;
72575;SDS011;60613;48.658;2.328;2023-01-28T10:55:49;6.63;;;3.20;;
72575;SDS011;60613;48.658;2.328;2023-01-28T10:58:26;7.03;;;2.90;;
72575;SDS011;60613;48.658;2.328;2023-01-28T11:00:54;6.47;;;2.83;;
72575;SDS011;60613;48.658;2.328;2023-01-28T11:03:23;5.63;;;2.65;;
72575;SDS011;60613;48.658;2.328;2023-01-28T11:05:56;6.38;;;2.88;;
72575;SDS011;60613;48.658;2.328;2023-01-28T11:08:27;6.10;;;3.08;;
72575;SDS011;60613;48.658;2.328;2023-01-28T11:10:54;6.87;;;3.00;;
72575;SDS011;60613;48.658;2.328;2023-01-28T11:15:59;6.85;;;2.83;;
72575;SDS011;60613;48.658;2.328;2023-01-28T11:18:30;6.60;;;3.00;;
72575;SDS011;60613;48.658;2.328;2023-01-28T11:21:04;5.68;;;2.63;;
72575;SDS011;60613;48.658;2.328;2023-01-28T11:23:46;6.17;;;2.60;;
72575;SDS011;60613;48.658;2.328;2023-01-28T11:26:20;5.75;;;2.50;;
72575;SDS011;60613;48.658;2.328;2023-01-28T11:28:48;6.18;;;2.80;;
72575;SDS011;60613;48.658;2.328;2023-01-28T11:31:16;5.80;;;2.55;;
72575;SDS011;60613;48.658;2.328;2023-01-28T11:33:45;6.32;;;2.75;;
72575;SDS011;60613;48.658;2.328;2023-01-28T11:36:21;6.10;;;2.60;;
72575;SDS011;60613;48.658;2.328;2023-01-28T11:43:55;6.03;;;2.60;;
72575;SDS011;60613;48.658;2.328;2023-01-28T11:46:39;7.32;;;3.13;;
72575;SDS011;60613;48.658;2.328;2023-01-28T12:07:55;7.40;;;3.70;;
72575;SDS011;60613;48.658;2.328;2023-01-28T12:10:47;7.07;;;3.50;;
72575;SDS011;60613;48.658;2.328;2023-01-28T12:13:31;7.85;;;3.83;;
72575;SDS011;60613;48.658;2.328;2023-01-28T12:24:44;6.80;;;3.00;;
72575;SDS011;60613;48.658;2.328;2023-01-28T12:42:44;6.70;;;3.10;;
72575;SDS011;60613;48.658;2.328;2023-01-28T12:45:23;6.30;;;2.93;;
72575;SDS011;60613;48.658;2.328;2023-01-28T12:48:01;6.28;;;2.92;;
72575;SDS011;60613;48.658;2.328;2023-01-28T12:50:53;6.85;;;2.78;;
72575;SDS011;60613;48.658;2.328;2023-01-28T12:53:27;5.82;;;2.70;;
72575;SDS011;60613;48.658;2.328;2023-01-28T12:56:07;6.32;;;3.08;;
72575;SDS011;60613;48.658;2.328;2023-01-28T12:58:42;5.97;;;2.73;;
72575;SDS011;60613;48.658;2.328;2023-01-28T13:01:20;6.35;;;2.78;;
72575;SDS011;60613;48.658;2.328;2023-01-28T13:03:58;6.13;;;2.85;;
72575;SDS011;60613;48.658;2.328;2023-01-28T13:06:32;5.78;;;2.80;;
72575;SDS011;60613;48.658;2.328;2023-01-28T13:09:09;5.13;;;2.53;;
72575;SDS011;60613;48.658;2.328;2023-01-28T13:11:43;6.17;;;2.77;;
72575;SDS011;60613;48.658;2.328;2023-01-28T13:14:11;6.60;;;2.95;;
72575;SDS011;60613;48.658;2.328;2023-01-28T13:16:37;7.00;;;2.92;;
72575;SDS011;60613;48.658;2.328;2023-01-28T13:19:03;5.50;;;2.50;;
72575;SDS011;60613;48.658;2.328;2023-01-28T13:21:41;6.65;;;2.70;;
72575;SDS011;60613;48.658;2.328;2023-01-28T13:31:39;6.00;;;2.78;;
72575;SDS011;60613;48.658;2.328;2023-01-28T13:34:08;6.03;;;2.60;;
72575;SDS011;60613;48.658;2.328;2023-01-28T13:36:50;5.55;;;2.63;;
72575;SDS011;60613;48.658;2.328;2023-01-28T13:39:18;5.83;;;2.63;;
72575;SDS011;60613;48.658;2.328;2023-01-28T13:41:52;5.95;;;2.70;;
72575;SDS011;60613;48.658;2.328;2023-01-28T13:44:27;6.00;;;2.67;;
72575;SDS011;60613;48.658;2.328;2023-01-28T13:46:58;6.70;;;2.50;;
72575;SDS011;60613;48.658;2.328;2023-01-28T13:49:46;5.80;;;2.83;;
72575;SDS011;60613;48.658;2.328;2023-01-28T13:55:41;5.35;;;2.60;;
72575;SDS011;60613;48.658;2.328;2023-01-28T14:20:17;5.50;;;2.60;;
72575;SDS011;60613;48.658;2.328;2023-01-28T14:22:46;5.68;;;2.63;;
72575;SDS011;60613;48.658;2.328;2023-01-28T14:25:15;5.80;;;2.78;;
72575;SDS011;60613;48.658;2.328;2023-01-28T14:27:47;5.97;;;2.83;;
72575;SDS011;60613;48.658;2.328;2023-01-28T14:32:52;6.20;;;2.97;;
72575;SDS011;60613;48.658;2.328;2023-01-28T14:35:24;6.65;;;2.90;;
72575;SDS011;60613;48.658;2.328;2023-01-28T14:37:56;6.00;;;3.00;;
72575;SDS011;60613;48.658;2.328;2023-01-28T14:40:23;6.97;;;3.20;;
72575;SDS011;60613;48.658;2.328;2023-01-28T14:42:51;6.60;;;3.33;;
72575;SDS011;60613;48.658;2.328;2023-01-28T14:56:21;5.95;;;2.90;;
72575;SDS011;60613;48.658;2.328;2023-01-28T14:58:53;6.73;;;3.20;;
72575;SDS011;60613;48.658;2.328;2023-01-28T15:01:26;6.90;;;3.40;;
72575;SDS011;60613;48.658;2.328;2023-01-28T15:03:53;9.10;;;3.40;;
72575;SDS011;60613;48.658;2.328;2023-01-28T15:06:21;8.65;;;3.38;;
72575;SDS011;60613;48.658;2.328;2023-01-28T15:09:04;6.75;;;3.20;;
72575;SDS011;60613;48.658;2.328;2023-01-28T15:11:35;10.03;;;3.33;;
72575;SDS011;60613;48.658;2.328;2023-01-28T15:14:03;7.05;;;3.08;;
72575;SDS011;60613;48.658;2.328;2023-01-28T15:16:34;6.93;;;3.42;;
72575;SDS011;60613;48.658;2.328;2023-01-28T15:19:00;7.90;;;3.17;;
72575;SDS011;60613;48.658;2.328;2023-01-28T15:21:26;8.88;;;3.30;;
72575;SDS011;60613;48.658;2.328;2023-01-28T15:23:55;7.30;;;3.13;;
72575;SDS011;60613;48.658;2.328;2023-01-28T15:26:26;6.50;;;3.20;;
72575;SDS011;60613;48.658;2.328;2023-01-28T15:28:55;6.93;;;3.20;;
72575;SDS011;60613;48.658;2.328;2023-01-28T15:31:31;7.13;;;3.10;;
72575;SDS011;60613;48.658;2.328;2023-01-28T15:34:02;7.05;;;3.17;;
72575;SDS011;60613;48.658;2.328;2023-01-28T15:36:36;6.70;;;3.15;;
72575;SDS011;60613;48.658;2.328;2023-01-28T15:39:01;8.03;;;3.50;;
72575;SDS011;60613;48.658;2.328;2023-01-28T15:41:35;7.27;;;3.50;;
72575;SDS011;60613;48.658;2.328;2023-01-28T15:44:04;7.05;;;3.53;;
72575;SDS011;60613;48.658;2.328;2023-01-28T15:46:30;8.40;;;3.42;;
72575;SDS011;60613;48.658;2.328;2023-01-28T15:48:59;8.02;;;3.40;;
72575;SDS011;60613;48.658;2.328;2023-01-28T15:51:30;7.20;;;3.60;;
72575;SDS011;60613;48.658;2.328;2023-01-28T15:53:59;7.97;;;3.70;;
72575;SDS011;60613;48.658;2.328;2023-01-28T15:56:30;7.00;;;3.70;;
72575;SDS011;60613;48.658;2.328;2023-01-28T15:59:08;7.45;;;3.72;;
72575;SDS011;60613;48.658;2.328;2023-01-28T16:01:33;7.70;;;3.80;;
72575;SDS011;60613;48.658;2.328;2023-01-28T16:04:03;7.20;;;3.70;;
72575;SDS011;60613;48.658;2.328;2023-01-28T16:06:37;7.78;;;3.80;;
72575;SDS011;60613;48.658;2.328;2023-01-28T16:09:06;7.85;;;4.00;;
72575;SDS011;60613;48.658;2.328;2023-01-28T16:11:44;7.90;;;4.00;;
72575;SDS011;60613;48.658;2.328;2023-01-28T16:17:09;8.88;;;4.38;;
72575;SDS011;60613;48.658;2.328;2023-01-28T16:19:44;6.90;;;4.10;;
72575;SDS011;60613;48.658;2.328;2023-01-28T16:22:17;7.87;;;3.97;;
72575;SDS011;60613;48.658;2.328;2023-01-28T16:24:50;8.57;;;4.00;;
72575;SDS011;60613;48.658;2.328;2023-01-28T16:27:23;8.13;;;4.38;;
72575;SDS011;60613;48.658;2.328;2023-01-28T16:29:50;8.43;;;4.45;;
72575;SDS011;60613;48.658;2.328;2023-01-28T16:34:57;8.45;;;4.50;;
72575;SDS011;60613;48.658;2.328;2023-01-28T16:37:23;7.70;;;4.43;;
72575;SDS011;60613;48.658;2.328;2023-01-28T16:39:48;10.15;;;4.53;;
72575;SDS011;60613;48.658;2.328;2023-01-28T16:42:14;8.00;;;4.20;;
72575;SDS011;60613;48.658;2.328;2023-01-28T16:44:40;7.88;;;4.40;;
72575;SDS011;60613;48.658;2.328;2023-01-28T16:47:06;8.40;;;4.73;;
72575;SDS011;60613;48.658;2.328;2023-01-28T16:49:32;7.78;;;4.53;;
72575;SDS011;60613;48.658;2.328;2023-01-28T16:51:58;7.28;;;4.35;;
72575;SDS011;60613;48.658;2.328;2023-01-28T16:54:25;7.27;;;4.20;;
72575;SDS011;60613;48.658;2.328;2023-01-28T16:56:52;8.38;;;4.85;;
72575;SDS011;60613;48.658;2.328;2023-01-28T16:59:19;8.85;;;4.97;;
72575;SDS011;60613;48.658;2.328;2023-01-28T17:01:44;8.10;;;4.72;;
72575;SDS011;60613;48.658;2.328;2023-01-28T17:04:10;8.40;;;4.70;;
72575;SDS011;60613;48.658;2.328;2023-01-28T17:06:37;9.65;;;5.20;;
72575;SDS011;60613;48.658;2.328;2023-01-28T17:09:05;8.20;;;4.80;;
72575;SDS011;60613;48.658;2.328;2023-01-28T17:11:31;9.90;;;4.63;;
72575;SDS011;60613;48.658;2.328;2023-01-28T17:13:58;8.90;;;4.72;;
72575;SDS011;60613;48.658;2.328;2023-01-28T17:16:24;8.88;;;5.00;;
72575;SDS011;60613;48.658;2.328;2023-01-28T17:18:50;8.83;;;5.03;;
72575;SDS011;60613;48.658;2.328;2023-01-28T17:21:19;9.30;;;4.93;;
72575;SDS011;60613;48.658;2.328;2023-01-28T17:23:45;8.65;;;5.00;;
72575;SDS011;60613;48.658;2.328;2023-01-28T17:26:12;8.70;;;4.72;;
72575;SDS011;60613;48.658;2.328;2023-01-28T17:28:39;9.02;;;5.18;;
72575;SDS011;60613;48.658;2.328;2023-01-28T17:31:06;8.87;;;5.10;;
72575;SDS011;60613;48.658;2.328;2023-01-28T17:33:32;8.98;;;5.13;;
72575;SDS011;60613;48.658;2.328;2023-01-28T17:35:59;9.00;;;5.32;;
72575;SDS011;60613;48.658;2.328;2023-01-28T17:38:26;8.90;;;5.13;;
72575;SDS011;60613;48.658;2.328;2023-01-28T17:40:51;7.90;;;4.57;;
72575;SDS011;60613;48.658;2.328;2023-01-28T17:43:17;9.00;;;5.18;;
72575;SDS011;60613;48.658;2.328;2023-01-28T17:45:43;8.67;;;5.00;;
72575;SDS011;60613;48.658;2.328;2023-01-28T17:48:09;8.32;;;5.20;;
72575;SDS011;60613;48.658;2.328;2023-01-28T17:50:37;8.10;;;4.90;;
72575;SDS011;60613;48.658;2.328;2023-01-28T17:53:04;8.80;;;5.30;;
72575;SDS011;60613;48.658;2.328;2023-01-28T17:55:30;8.63;;;5.15;;
72575;SDS011;60613;48.658;2.328;2023-01-28T17:57:59;8.88;;;5.03;;
72575;SDS011;60613;48.658;2.328;2023-01-28T18:00:24;9.33;;;5.77;;
72575;SDS011;60613;48.658;2.328;2023-01-28T18:02:51;8.13;;;5.20;;
72575;SDS011;60613;48.658;2.328;2023-01-28T18:05:17;8.75;;;5.20;;
72575;SDS011;60613;48.658;2.328;2023-01-28T18:07:43;9.20;;;5.70;;
72575;SDS011;60613;48.658;2.328;2023-01-28T18:10:10;8.23;;;5.50;;
72575;SDS011;60613;48.658;2.328;2023-01-28T18:12:39;8.57;;;5.30;;
72575;SDS011;60613;48.658;2.328;2023-01-28T18:15:05;8.95;;;5.43;;
72575;SDS011;60613;48.658;2.328;2023-01-28T18:17:32;8.68;;;5.53;;
72575;SDS011;60613;48.658;2.328;2023-01-28T18:19:57;8.10;;;5.30;;
72575;SDS011;60613;48.658;2.328;2023-01-28T18:22:23;9.27;;;5.85;;
72575;SDS011;60613;48.658;2.328;2023-01-28T18:24:49;8.38;;;5.38;;
72575;SDS011;60613;48.658;2.328;2023-01-28T18:27:15;8.43;;;5.20;;
72575;SDS011;60613;48.658;2.328;2023-01-28T18:29:41;8.32;;;5.60;;
72575;SDS011;60613;48.658;2.328;2023-01-28T18:32:07;8.60;;;5.30;;
72575;SDS011;60613;48.658;2.328;2023-01-28T18:34:32;8.15;;;5.07;;
72575;SDS011;60613;48.658;2.328;2023-01-28T18:36:59;8.45;;;5.28;;
72575;SDS011;60613;48.658;2.328;2023-01-28T18:39:25;8.82;;;5.32;;
72575;SDS011;60613;48.658;2.328;2023-01-28T18:41:54;8.52;;;5.50;;
72575;SDS011;60613;48.658;2.328;2023-01-28T18:44:20;7.93;;;5.10;;
72575;SDS011;60613;48.658;2.328;2023-01-28T18:46:47;8.25;;;5.03;;
72575;SDS011;60613;48.658;2.328;2023-01-28T18:49:13;8.85;;;5.20;;
72575;SDS011;60613;48.658;2.328;2023-01-28T18:51:38;8.13;;;5.27;;
72575;SDS011;60613;48.658;2.328;2023-01-28T18:54:05;9.13;;;5.50;;
72575;SDS011;60613;48.658;2.328;2023-01-28T18:56:32;8.65;;;5.53;;
72575;SDS011;60613;48.658;2.328;2023-01-28T18:58:59;8.10;;;5.27;;
72575;SDS011;60613;48.658;2.328;2023-01-28T19:01:26;8.70;;;5.40;;
72575;SDS011;60613;48.658;2.328;2023-01-28T19:03:55;8.82;;;5.18;;
72575;SDS011;60613;48.658;2.328;2023-01-28T19:06:22;8.05;;;5.20;;
72575;SDS011;60613;48.658;2.328;2023-01-28T19:08:52;9.45;;;5.53;;
72575;SDS011;60613;48.658;2.328;2023-01-28T19:11:23;9.17;;;5.67;;
72575;SDS011;60613;48.658;2.328;2023-01-28T19:13:50;9.40;;;5.45;;
72575;SDS011;60613;48.658;2.328;2023-01-28T19:16:16;9.05;;;5.35;;
72575;SDS011;60613;48.658;2.328;2023-01-28T19:18:42;8.95;;;5.60;;
72575;SDS011;60613;48.658;2.328;2023-01-28T19:21:08;9.98;;;5.80;;
72575;SDS011;60613;48.658;2.328;2023-01-28T19:23:34;8.93;;;5.10;;
72575;SDS011;60613;48.658;2.328;2023-01-28T19:28:35;10.75;;;5.80;;
72575;SDS011;60613;48.658;2.328;2023-01-28T19:31:01;10.10;;;5.97;;
72575;SDS011;60613;48.658;2.328;2023-01-28T19:33:27;11.05;;;5.82;;
72575;SDS011;60613;48.658;2.328;2023-01-28T19:35:53;9.13;;;6.00;;
72575;SDS011;60613;48.658;2.328;2023-01-28T19:38:26;8.70;;;5.43;;
72575;SDS011;60613;48.658;2.328;2023-01-28T19:40:52;10.80;;;5.97;;
72575;SDS011;60613;48.658;2.328;2023-01-28T19:43:18;9.85;;;5.97;;
72575;SDS011;60613;48.658;2.328;2023-01-28T19:45:54;10.70;;;6.00;;
72575;SDS011;60613;48.658;2.328;2023-01-28T19:48:24;9.53;;;5.60;;
72575;SDS011;60613;48.658;2.328;2023-01-28T19:50:50;9.98;;;5.70;;
72575;SDS011;60613;48.658;2.328;2023-01-28T19:53:15;10.15;;;5.88;;
72575;SDS011;60613;48.658;2.328;2023-01-28T19:55:42;10.30;;;6.00;;
72575;SDS011;60613;48.658;2.328;2023-01-28T19:58:08;10.60;;;6.00;;
72575;SDS011;60613;48.658;2.328;2023-01-28T20:00:35;9.98;;;6.15;;
72575;SDS011;60613;48.658;2.328;2023-01-28T20:03:00;10.57;;;6.43;;
72575;SDS011;60613;48.658;2.328;2023-01-28T20:05:26;9.68;;;5.80;;
72575;SDS011;60613;48.658;2.328;2023-01-28T20:07:51;10.47;;;6.20;;
72575;SDS011;60613;48.658;2.328;2023-01-28T20:10:17;10.18;;;6.35;;
72575;SDS011;60613;48.658;2.328;2023-01-28T20:12:43;10.13;;;6.10;;
72575;SDS011;60613;48.658;2.328;2023-01-28T20:15:08;9.90;;;6.00;;
72575;SDS011;60613;48.658;2.328;2023-01-28T20:17:35;10.13;;;6.18;;
72575;SDS011;60613;48.658;2.328;2023-01-28T20:20:00;9.90;;;6.15;;
72575;SDS011;60613;48.658;2.328;2023-01-28T20:22:29;9.20;;;5.90;;
72575;SDS011;60613;48.658;2.328;2023-01-28T20:24:55;9.30;;;6.20;;
72575;SDS011;60613;48.658;2.328;2023-01-28T20:27:24;10.65;;;6.15;;
72575;SDS011;60613;48.658;2.328;2023-01-28T20:29:50;10.93;;;6.28;;
72575;SDS011;60613;48.658;2.328;2023-01-28T20:32:16;9.82;;;6.30;;
72575;SDS011;60613;48.658;2.328;2023-01-28T20:34:43;9.38;;;6.20;;
72575;SDS011;60613;48.658;2.328;2023-01-28T20:37:08;9.53;;;5.90;;
72575;SDS011;60613;48.658;2.328;2023-01-28T20:39:34;9.82;;;6.03;;
72575;SDS011;60613;48.658;2.328;2023-01-28T20:42:00;8.50;;;5.60;;
72575;SDS011;60613;48.658;2.328;2023-01-28T20:44:26;8.88;;;5.65;;
72575;SDS011;60613;48.658;2.328;2023-01-28T20:46:56;8.80;;;5.68;;
72575;SDS011;60613;48.658;2.328;2023-01-28T20:49:25;9.20;;;5.65;;
72575;SDS011;60613;48.658;2.328;2023-01-28T20:51:51;8.98;;;5.80;;
72575;SDS011;60613;48.658;2.328;2023-01-28T20:54:17;10.13;;;5.63;;
72575;SDS011;60613;48.658;2.328;2023-01-28T20:56:45;9.20;;;5.47;;
72575;SDS011;60613;48.658;2.328;2023-01-28T20:59:14;9.65;;;5.57;;
72575;SDS011;60613;48.658;2.328;2023-01-28T21:01:40;8.80;;;5.33;;
72575;SDS011;60613;48.658;2.328;2023-01-28T21:04:06;8.98;;;5.40;;
72575;SDS011;60613;48.658;2.328;2023-01-28T21:06:33;8.27;;;5.35;;
72575;SDS011;60613;48.658;2.328;2023-01-28T21:09:00;8.50;;;5.40;;
72575;SDS011;60613;48.658;2.328;2023-01-28T21:11:27;8.77;;;5.40;;
72575;SDS011;60613;48.658;2.328;2023-01-28T21:13:53;8.40;;;5.10;;
72575;SDS011;60613;48.658;2.328;2023-01-28T21:16:19;8.00;;;5.10;;
72575;SDS011;60613;48.658;2.328;2023-01-28T21:18:46;8.70;;;5.40;;
72575;SDS011;60613;48.658;2.328;2023-01-28T21:21:19;8.57;;;5.17;;
72575;SDS011;60613;48.658;2.328;2023-01-28T21:23:46;8.57;;;5.10;;
72575;SDS011;60613;48.658;2.328;2023-01-28T21:26:12;7.82;;;4.80;;
72575;SDS011;60613;48.658;2.328;2023-01-28T21:28:39;8.38;;;4.80;;
72575;SDS011;60613;48.658;2.328;2023-01-28T21:31:08;7.90;;;4.97;;
72575;SDS011;60613;48.658;2.328;2023-01-28T21:33:35;8.05;;;4.70;;
72575;SDS011;60613;48.658;2.328;2023-01-28T21:36:06;9.13;;;5.05;;
72575;SDS011;60613;48.658;2.328;2023-01-28T21:38:36;7.88;;;4.60;;
72575;SDS011;60613;48.658;2.328;2023-01-28T21:41:02;7.77;;;4.80;;
72575;SDS011;60613;48.658;2.328;2023-01-28T21:43:29;7.75;;;4.70;;
72575;SDS011;60613;48.658;2.328;2023-01-28T21:45:55;7.60;;;4.50;;
72575;SDS011;60613;48.658;2.328;2023-01-28T21:48:21;8.27;;;4.47;;
72575;SDS011;60613;48.658;2.328;2023-01-28T21:50:48;7.95;;;4.78;;
72575;SDS011;60613;48.658;2.328;2023-01-28T21:53:38;7.30;;;4.50;;
72575;SDS011;60613;48.658;2.328;2023-01-28T21:56:07;7.47;;;4.43;;
72575;SDS011;60613;48.658;2.328;2023-01-28T21:58:34;7.93;;;4.60;;
